LPPT/LIS METAR and TAF weather

Enter ICAO airport designator
Station Type Date Time Source
LPPT METAR 2021/01/16 03:00 UTC NOAA

LPPT 160300Z 35008KT 9999 FEW008 08/05 Q1028


Station Type Date Time Source
LPPT Decoded METAR 2021/01/16 03:00 UTC NOAA

Lisboa / Portela, Portugal (LPPT) 38-46N 009-08W 123M
Jan 15, 2021 - 10:00 PM EST / 2021.01.16 0300 UTC
Wind: from the N (350 degrees) at 9 MPH (8 KT):0
Visibility: greater than 7 mile(s):0
Sky conditions: mostly clear
Temperature: 46 F (8 C)
Dew Point: 41 F (5 C)
Relative Humidity: 81%
Pressure (altimeter): 30.36 in. Hg (1028 hPa)
ob: LPPT 160300Z 35008KT 9999 FEW008 08/05 Q1028
cycle: 3

Station Type Date Time Source
LPPT TAF 2021/01/15 18:18 UTC NOAA

TAF LPPT 151700Z 1518/1624 33010KT 9999 FEW020
BECMG 1603/1606 06005KT PROB30 1604/1611 3000 BR SCT003
BECMG 1616/1619 33007KT

Example: see airport list